sensor_id;sensor_type;location;lat;lon;timestamp;P1;durP1;ratioP1;P2;durP2;ratioP2
54123;SDS011;55741;53.252;5.788;2023-01-31T00:01:36;25.50;;;4.10;;
54123;SDS011;55741;53.252;5.788;2023-01-31T00:04:05;22.98;;;3.60;;
54123;SDS011;55741;53.252;5.788;2023-01-31T00:06:34;25.63;;;4.55;;
54123;SDS011;55741;53.252;5.788;2023-01-31T00:09:04;31.17;;;4.95;;
54123;SDS011;55741;53.252;5.788;2023-01-31T00:11:31;25.88;;;3.97;;
54123;SDS011;55741;53.252;5.788;2023-01-31T00:13:57;27.50;;;3.83;;
54123;SDS011;55741;53.252;5.788;2023-01-31T00:16:24;26.17;;;3.72;;
54123;SDS011;55741;53.252;5.788;2023-01-31T00:18:53;24.70;;;4.72;;
54123;SDS011;55741;53.252;5.788;2023-01-31T00:21:20;23.90;;;3.75;;
54123;SDS011;55741;53.252;5.788;2023-01-31T00:23:49;23.17;;;3.65;;
54123;SDS011;55741;53.252;5.788;2023-01-31T00:26:16;27.05;;;4.38;;
54123;SDS011;55741;53.252;5.788;2023-01-31T00:28:45;22.70;;;4.82;;
54123;SDS011;55741;53.252;5.788;2023-01-31T00:31:12;22.25;;;3.88;;
54123;SDS011;55741;53.252;5.788;2023-01-31T00:33:40;34.22;;;4.95;;
54123;SDS011;55741;53.252;5.788;2023-01-31T00:36:08;30.05;;;5.32;;
54123;SDS011;55741;53.252;5.788;2023-01-31T00:38:40;30.33;;;4.35;;
54123;SDS011;55741;53.252;5.788;2023-01-31T00:41:10;32.33;;;4.75;;
54123;SDS011;55741;53.252;5.788;2023-01-31T00:43:36;35.17;;;4.50;;
54123;SDS011;55741;53.252;5.788;2023-01-31T00:46:02;35.33;;;5.13;;
54123;SDS011;55741;53.252;5.788;2023-01-31T00:48:32;26.13;;;4.72;;
54123;SDS011;55741;53.252;5.788;2023-01-31T00:50:58;21.60;;;3.97;;
54123;SDS011;55741;53.252;5.788;2023-01-31T00:53:24;24.85;;;4.10;;
54123;SDS011;55741;53.252;5.788;2023-01-31T00:55:51;32.30;;;4.68;;
54123;SDS011;55741;53.252;5.788;2023-01-31T00:58:18;32.90;;;5.22;;
54123;SDS011;55741;53.252;5.788;2023-01-31T01:00:46;33.70;;;5.43;;
54123;SDS011;55741;53.252;5.788;2023-01-31T01:03:12;29.88;;;4.72;;
54123;SDS011;55741;53.252;5.788;2023-01-31T01:05:39;37.55;;;4.30;;
54123;SDS011;55741;53.252;5.788;2023-01-31T01:08:05;29.65;;;4.15;;
54123;SDS011;55741;53.252;5.788;2023-01-31T01:10:31;32.00;;;4.15;;
54123;SDS011;55741;53.252;5.788;2023-01-31T01:12:57;30.15;;;3.60;;
54123;SDS011;55741;53.252;5.788;2023-01-31T01:15:23;30.42;;;4.20;;
54123;SDS011;55741;53.252;5.788;2023-01-31T01:17:49;26.35;;;3.72;;
54123;SDS011;55741;53.252;5.788;2023-01-31T01:20:15;33.17;;;5.40;;
54123;SDS011;55741;53.252;5.788;2023-01-31T01:22:41;34.03;;;7.05;;
54123;SDS011;55741;53.252;5.788;2023-01-31T01:25:09;36.08;;;5.00;;
54123;SDS011;55741;53.252;5.788;2023-01-31T01:27:35;28.35;;;3.90;;
54123;SDS011;55741;53.252;5.788;2023-01-31T01:30:01;30.10;;;4.25;;
54123;SDS011;55741;53.252;5.788;2023-01-31T01:32:28;33.72;;;6.38;;
54123;SDS011;55741;53.252;5.788;2023-01-31T01:34:55;34.40;;;6.25;;
54123;SDS011;55741;53.252;5.788;2023-01-31T01:37:21;40.53;;;4.95;;
54123;SDS011;55741;53.252;5.788;2023-01-31T01:39:47;37.58;;;4.43;;
54123;SDS011;55741;53.252;5.788;2023-01-31T01:42:17;36.00;;;5.60;;
54123;SDS011;55741;53.252;5.788;2023-01-31T01:44:55;36.95;;;4.75;;
54123;SDS011;55741;53.252;5.788;2023-01-31T01:52:53;28.15;;;5.60;;
54123;SDS011;55741;53.252;5.788;2023-01-31T01:55:35;25.17;;;4.53;;
54123;SDS011;55741;53.252;5.788;2023-01-31T01:58:08;26.23;;;5.70;;
54123;SDS011;55741;53.252;5.788;2023-01-31T02:00:39;31.85;;;4.30;;
54123;SDS011;55741;53.252;5.788;2023-01-31T02:03:06;27.08;;;4.05;;
54123;SDS011;55741;53.252;5.788;2023-01-31T02:05:45;31.02;;;4.45;;
54123;SDS011;55741;53.252;5.788;2023-01-31T02:08:27;24.65;;;4.00;;
54123;SDS011;55741;53.252;5.788;2023-01-31T02:11:03;20.15;;;3.80;;
54123;SDS011;55741;53.252;5.788;2023-01-31T02:13:45;30.17;;;5.85;;
54123;SDS011;55741;53.252;5.788;2023-01-31T02:16:12;22.77;;;4.03;;
54123;SDS011;55741;53.252;5.788;2023-01-31T02:18:38;22.80;;;3.40;;
54123;SDS011;55741;53.252;5.788;2023-01-31T02:35:37;21.33;;;3.28;;
54123;SDS011;55741;53.252;5.788;2023-01-31T02:43:38;24.73;;;5.22;;
54123;SDS011;55741;53.252;5.788;2023-01-31T02:46:31;21.02;;;5.03;;
54123;SDS011;55741;53.252;5.788;2023-01-31T02:49:22;25.75;;;3.88;;
54123;SDS011;55741;53.252;5.788;2023-01-31T02:52:33;30.08;;;4.88;;
54123;SDS011;55741;53.252;5.788;2023-01-31T02:55:10;27.42;;;4.90;;
54123;SDS011;55741;53.252;5.788;2023-01-31T02:57:59;33.50;;;5.00;;
54123;SDS011;55741;53.252;5.788;2023-01-31T03:00:29;43.95;;;5.75;;
54123;SDS011;55741;53.252;5.788;2023-01-31T03:02:58;37.75;;;5.53;;
54123;SDS011;55741;53.252;5.788;2023-01-31T03:05:25;38.28;;;6.15;;
54123;SDS011;55741;53.252;5.788;2023-01-31T03:07:55;30.20;;;5.63;;
54123;SDS011;55741;53.252;5.788;2023-01-31T03:10:34;34.35;;;5.68;;
54123;SDS011;55741;53.252;5.788;2023-01-31T03:18:48;36.85;;;6.30;;
54123;SDS011;55741;53.252;5.788;2023-01-31T03:21:22;35.50;;;6.22;;
54123;SDS011;55741;53.252;5.788;2023-01-31T03:23:53;38.50;;;5.90;;
54123;SDS011;55741;53.252;5.788;2023-01-31T03:26:22;37.15;;;7.28;;
54123;SDS011;55741;53.252;5.788;2023-01-31T03:28:50;39.75;;;7.28;;
54123;SDS011;55741;53.252;5.788;2023-01-31T03:31:22;33.47;;;6.63;;
54123;SDS011;55741;53.252;5.788;2023-01-31T03:33:56;32.65;;;6.60;;
54123;SDS011;55741;53.252;5.788;2023-01-31T03:39:08;33.80;;;5.65;;
54123;SDS011;55741;53.252;5.788;2023-01-31T03:42:01;37.10;;;6.45;;
54123;SDS011;55741;53.252;5.788;2023-01-31T03:44:42;48.10;;;6.88;;
54123;SDS011;55741;53.252;5.788;2023-01-31T03:47:15;42.15;;;6.00;;
54123;SDS011;55741;53.252;5.788;2023-01-31T03:49:45;41.78;;;5.90;;
54123;SDS011;55741;53.252;5.788;2023-01-31T03:52:16;37.88;;;6.45;;
54123;SDS011;55741;53.252;5.788;2023-01-31T03:54:56;38.85;;;6.68;;
54123;SDS011;55741;53.252;5.788;2023-01-31T03:57:28;37.10;;;6.47;;
54123;SDS011;55741;53.252;5.788;2023-01-31T03:59:58;44.30;;;6.97;;
54123;SDS011;55741;53.252;5.788;2023-01-31T04:02:28;47.15;;;7.72;;
54123;SDS011;55741;53.252;5.788;2023-01-31T04:04:59;39.80;;;6.30;;
54123;SDS011;55741;53.252;5.788;2023-01-31T04:07:35;44.95;;;6.95;;
54123;SDS011;55741;53.252;5.788;2023-01-31T04:10:03;36.38;;;6.05;;
54123;SDS011;55741;53.252;5.788;2023-01-31T04:12:35;45.78;;;6.97;;
54123;SDS011;55741;53.252;5.788;2023-01-31T04:15:02;46.45;;;6.38;;
54123;SDS011;55741;53.252;5.788;2023-01-31T04:17:29;38.08;;;7.30;;
54123;SDS011;55741;53.252;5.788;2023-01-31T04:19:55;40.92;;;6.72;;
54123;SDS011;55741;53.252;5.788;2023-01-31T04:22:21;42.03;;;6.90;;
54123;SDS011;55741;53.252;5.788;2023-01-31T04:24:47;40.55;;;5.25;;
54123;SDS011;55741;53.252;5.788;2023-01-31T04:27:14;35.75;;;5.93;;
54123;SDS011;55741;53.252;5.788;2023-01-31T04:29:40;38.95;;;6.38;;
54123;SDS011;55741;53.252;5.788;2023-01-31T04:32:06;43.47;;;7.70;;
54123;SDS011;55741;53.252;5.788;2023-01-31T04:34:32;43.10;;;6.45;;
54123;SDS011;55741;53.252;5.788;2023-01-31T04:37:01;36.35;;;6.57;;
54123;SDS011;55741;53.252;5.788;2023-01-31T04:39:27;38.50;;;5.90;;
54123;SDS011;55741;53.252;5.788;2023-01-31T04:41:53;46.65;;;6.45;;
54123;SDS011;55741;53.252;5.788;2023-01-31T04:44:19;48.17;;;8.23;;
54123;SDS011;55741;53.252;5.788;2023-01-31T04:46:45;36.80;;;6.20;;
54123;SDS011;55741;53.252;5.788;2023-01-31T04:49:11;33.40;;;6.18;;
54123;SDS011;55741;53.252;5.788;2023-01-31T04:51:38;34.85;;;6.32;;
54123;SDS011;55741;53.252;5.788;2023-01-31T04:54:04;51.08;;;7.93;;
54123;SDS011;55741;53.252;5.788;2023-01-31T04:56:30;29.65;;;5.32;;
54123;SDS011;55741;53.252;5.788;2023-01-31T04:58:57;39.55;;;5.93;;
54123;SDS011;55741;53.252;5.788;2023-01-31T05:01:23;38.35;;;8.18;;
54123;SDS011;55741;53.252;5.788;2023-01-31T05:03:50;35.80;;;6.18;;
54123;SDS011;55741;53.252;5.788;2023-01-31T05:06:16;37.58;;;6.60;;
54123;SDS011;55741;53.252;5.788;2023-01-31T05:08:44;42.40;;;6.28;;
54123;SDS011;55741;53.252;5.788;2023-01-31T05:11:10;28.90;;;6.82;;
54123;SDS011;55741;53.252;5.788;2023-01-31T05:13:36;33.78;;;6.32;;
54123;SDS011;55741;53.252;5.788;2023-01-31T05:16:09;27.55;;;6.50;;
54123;SDS011;55741;53.252;5.788;2023-01-31T05:18:36;36.33;;;5.22;;
54123;SDS011;55741;53.252;5.788;2023-01-31T05:21:09;23.42;;;4.63;;
54123;SDS011;55741;53.252;5.788;2023-01-31T05:23:35;37.03;;;6.95;;
54123;SDS011;55741;53.252;5.788;2023-01-31T05:26:01;40.97;;;5.82;;
54123;SDS011;55741;53.252;5.788;2023-01-31T05:28:28;36.45;;;6.80;;
54123;SDS011;55741;53.252;5.788;2023-01-31T05:30:59;44.83;;;5.93;;
54123;SDS011;55741;53.252;5.788;2023-01-31T05:33:27;32.42;;;5.95;;
54123;SDS011;55741;53.252;5.788;2023-01-31T05:35:56;42.75;;;7.72;;
54123;SDS011;55741;53.252;5.788;2023-01-31T05:38:22;39.58;;;6.30;;
54123;SDS011;55741;53.252;5.788;2023-01-31T05:40:48;36.58;;;5.82;;
54123;SDS011;55741;53.252;5.788;2023-01-31T05:43:15;33.10;;;6.57;;
54123;SDS011;55741;53.252;5.788;2023-01-31T05:45:40;36.35;;;6.70;;
54123;SDS011;55741;53.252;5.788;2023-01-31T05:48:07;39.30;;;6.38;;
54123;SDS011;55741;53.252;5.788;2023-01-31T05:50:33;37.70;;;5.80;;
54123;SDS011;55741;53.252;5.788;2023-01-31T05:52:59;37.50;;;5.63;;
54123;SDS011;55741;53.252;5.788;2023-01-31T05:55:27;34.17;;;5.50;;
54123;SDS011;55741;53.252;5.788;2023-01-31T05:57:54;30.40;;;6.35;;
54123;SDS011;55741;53.252;5.788;2023-01-31T06:00:21;35.28;;;6.30;;
54123;SDS011;55741;53.252;5.788;2023-01-31T06:02:47;38.33;;;5.95;;
54123;SDS011;55741;53.252;5.788;2023-01-31T06:05:14;47.70;;;8.20;;
54123;SDS011;55741;53.252;5.788;2023-01-31T06:07:40;27.73;;;5.53;;
54123;SDS011;55741;53.252;5.788;2023-01-31T06:10:08;35.42;;;5.88;;
54123;SDS011;55741;53.252;5.788;2023-01-31T06:12:38;28.00;;;6.45;;
54123;SDS011;55741;53.252;5.788;2023-01-31T06:15:04;38.25;;;8.57;;
54123;SDS011;55741;53.252;5.788;2023-01-31T06:17:31;32.08;;;6.18;;
54123;SDS011;55741;53.252;5.788;2023-01-31T06:19:57;37.25;;;8.55;;
54123;SDS011;55741;53.252;5.788;2023-01-31T06:22:22;36.38;;;8.75;;
54123;SDS011;55741;53.252;5.788;2023-01-31T06:24:48;31.88;;;4.38;;
54123;SDS011;55741;53.252;5.788;2023-01-31T06:27:15;37.78;;;5.82;;
54123;SDS011;55741;53.252;5.788;2023-01-31T06:29:41;32.28;;;4.70;;
54123;SDS011;55741;53.252;5.788;2023-01-31T06:32:07;28.02;;;4.40;;
54123;SDS011;55741;53.252;5.788;2023-01-31T06:34:33;26.98;;;4.85;;
54123;SDS011;55741;53.252;5.788;2023-01-31T06:36:58;26.38;;;4.90;;
54123;SDS011;55741;53.252;5.788;2023-01-31T06:39:24;27.25;;;5.22;;
54123;SDS011;55741;53.252;5.788;2023-01-31T06:41:51;34.35;;;5.85;;
54123;SDS011;55741;53.252;5.788;2023-01-31T06:44:18;27.73;;;4.47;;
54123;SDS011;55741;53.252;5.788;2023-01-31T06:46:44;31.98;;;5.93;;
54123;SDS011;55741;53.252;5.788;2023-01-31T06:49:11;27.38;;;5.10;;
54123;SDS011;55741;53.252;5.788;2023-01-31T06:51:38;30.67;;;4.45;;
54123;SDS011;55741;53.252;5.788;2023-01-31T06:54:04;18.15;;;4.20;;
54123;SDS011;55741;53.252;5.788;2023-01-31T06:56:30;21.20;;;5.45;;
54123;SDS011;55741;53.252;5.788;2023-01-31T06:58:55;35.15;;;4.63;;
54123;SDS011;55741;53.252;5.788;2023-01-31T07:01:21;36.30;;;4.47;;
54123;SDS011;55741;53.252;5.788;2023-01-31T07:03:48;26.42;;;4.75;;
54123;SDS011;55741;53.252;5.788;2023-01-31T07:06:14;28.40;;;4.88;;
54123;SDS011;55741;53.252;5.788;2023-01-31T07:08:42;28.35;;;5.10;;
54123;SDS011;55741;53.252;5.788;2023-01-31T07:11:09;29.08;;;5.75;;
54123;SDS011;55741;53.252;5.788;2023-01-31T07:13:35;25.75;;;4.60;;
54123;SDS011;55741;53.252;5.788;2023-01-31T07:16:01;25.90;;;4.97;;
54123;SDS011;55741;53.252;5.788;2023-01-31T07:18:27;35.63;;;5.50;;
54123;SDS011;55741;53.252;5.788;2023-01-31T07:20:53;31.48;;;5.65;;
54123;SDS011;55741;53.252;5.788;2023-01-31T07:23:19;32.22;;;4.80;;
54123;SDS011;55741;53.252;5.788;2023-01-31T07:25:45;25.08;;;4.30;;
54123;SDS011;55741;53.252;5.788;2023-01-31T07:28:11;27.13;;;4.50;;
54123;SDS011;55741;53.252;5.788;2023-01-31T07:30:37;24.38;;;4.90;;
54123;SDS011;55741;53.252;5.788;2023-01-31T07:33:04;34.97;;;4.88;;
54123;SDS011;55741;53.252;5.788;2023-01-31T07:35:30;24.92;;;4.97;;
54123;SDS011;55741;53.252;5.788;2023-01-31T07:37:55;35.15;;;7.13;;
54123;SDS011;55741;53.252;5.788;2023-01-31T07:40:21;28.23;;;4.72;;
54123;SDS011;55741;53.252;5.788;2023-01-31T07:42:47;26.25;;;5.57;;
54123;SDS011;55741;53.252;5.788;2023-01-31T07:45:14;30.38;;;4.97;;
54123;SDS011;55741;53.252;5.788;2023-01-31T07:47:40;28.20;;;5.20;;
54123;SDS011;55741;53.252;5.788;2023-01-31T07:50:07;23.63;;;5.70;;
54123;SDS011;55741;53.252;5.788;2023-01-31T07:52:33;30.73;;;5.38;;
54123;SDS011;55741;53.252;5.788;2023-01-31T07:54:59;43.10;;;6.55;;
54123;SDS011;55741;53.252;5.788;2023-01-31T07:57:25;33.67;;;6.78;;
54123;SDS011;55741;53.252;5.788;2023-01-31T07:59:51;37.28;;;5.22;;
54123;SDS011;55741;53.252;5.788;2023-01-31T08:02:17;36.53;;;7.05;;
54123;SDS011;55741;53.252;5.788;2023-01-31T08:05:02;33.53;;;5.28;;
54123;SDS011;55741;53.252;5.788;2023-01-31T08:07:28;39.22;;;5.70;;
54123;SDS011;55741;53.252;5.788;2023-01-31T08:09:54;33.13;;;5.82;;
54123;SDS011;55741;53.252;5.788;2023-01-31T08:12:22;38.50;;;5.25;;
54123;SDS011;55741;53.252;5.788;2023-01-31T08:14:47;36.88;;;5.90;;
54123;SDS011;55741;53.252;5.788;2023-01-31T08:17:14;35.03;;;5.70;;
54123;SDS011;55741;53.252;5.788;2023-01-31T08:19:40;36.28;;;6.15;;
54123;SDS011;55741;53.252;5.788;2023-01-31T08:22:06;40.03;;;6.43;;
54123;SDS011;55741;53.252;5.788;2023-01-31T08:24:32;28.85;;;5.72;;
54123;SDS011;55741;53.252;5.788;2023-01-31T08:26:58;33.45;;;5.60;;
54123;SDS011;55741;53.252;5.788;2023-01-31T08:29:24;36.20;;;6.60;;
54123;SDS011;55741;53.252;5.788;2023-01-31T08:31:54;44.53;;;7.22;;
54123;SDS011;55741;53.252;5.788;2023-01-31T08:34:20;35.78;;;7.38;;
54123;SDS011;55741;53.252;5.788;2023-01-31T08:36:47;36.65;;;6.55;;
54123;SDS011;55741;53.252;5.788;2023-01-31T08:39:13;34.33;;;5.57;;
54123;SDS011;55741;53.252;5.788;2023-01-31T08:41:41;31.98;;;6.07;;
54123;SDS011;55741;53.252;5.788;2023-01-31T08:44:07;34.70;;;6.05;;
54123;SDS011;55741;53.252;5.788;2023-01-31T08:46:34;33.90;;;5.28;;
54123;SDS011;55741;53.252;5.788;2023-01-31T08:49:07;31.08;;;5.40;;
54123;SDS011;55741;53.252;5.788;2023-01-31T08:51:34;40.15;;;5.95;;
54123;SDS011;55741;53.252;5.788;2023-01-31T08:54:00;36.10;;;6.32;;
54123;SDS011;55741;53.252;5.788;2023-01-31T08:56:26;32.05;;;5.30;;
54123;SDS011;55741;53.252;5.788;2023-01-31T08:58:53;34.50;;;6.00;;
54123;SDS011;55741;53.252;5.788;2023-01-31T09:01:19;37.03;;;6.30;;
54123;SDS011;55741;53.252;5.788;2023-01-31T09:03:49;35.65;;;6.20;;
54123;SDS011;55741;53.252;5.788;2023-01-31T09:06:21;35.38;;;6.20;;
54123;SDS011;55741;53.252;5.788;2023-01-31T09:08:48;33.40;;;6.05;;
54123;SDS011;55741;53.252;5.788;2023-01-31T09:11:14;31.45;;;5.15;;
54123;SDS011;55741;53.252;5.788;2023-01-31T09:13:45;38.70;;;5.75;;
54123;SDS011;55741;53.252;5.788;2023-01-31T09:16:13;33.65;;;5.20;;
54123;SDS011;55741;53.252;5.788;2023-01-31T09:18:41;39.63;;;5.85;;
54123;SDS011;55741;53.252;5.788;2023-01-31T09:21:25;39.75;;;6.40;;
54123;SDS011;55741;53.252;5.788;2023-01-31T09:23:58;33.40;;;6.13;;
54123;SDS011;55741;53.252;5.788;2023-01-31T09:26:26;40.50;;;6.55;;
54123;SDS011;55741;53.252;5.788;2023-01-31T09:28:52;36.00;;;6.15;;
54123;SDS011;55741;53.252;5.788;2023-01-31T09:31:20;36.63;;;5.78;;
54123;SDS011;55741;53.252;5.788;2023-01-31T09:33:46;35.03;;;6.28;;
54123;SDS011;55741;53.252;5.788;2023-01-31T09:36:13;34.78;;;5.30;;
54123;SDS011;55741;53.252;5.788;2023-01-31T09:38:41;35.55;;;5.85;;
54123;SDS011;55741;53.252;5.788;2023-01-31T09:44:02;36.95;;;5.47;;
54123;SDS011;55741;53.252;5.788;2023-01-31T09:46:31;35.97;;;5.72;;
54123;SDS011;55741;53.252;5.788;2023-01-31T09:49:03;34.15;;;5.60;;
54123;SDS011;55741;53.252;5.788;2023-01-31T09:51:37;42.42;;;6.47;;
54123;SDS011;55741;53.252;5.788;2023-01-31T09:54:05;38.03;;;6.05;;
54123;SDS011;55741;53.252;5.788;2023-01-31T09:56:39;35.80;;;5.97;;
54123;SDS011;55741;53.252;5.788;2023-01-31T10:01:58;37.20;;;5.78;;
54123;SDS011;55741;53.252;5.788;2023-01-31T10:07:03;36.08;;;6.00;;
54123;SDS011;55741;53.252;5.788;2023-01-31T10:09:54;33.80;;;5.45;;
54123;SDS011;55741;53.252;5.788;2023-01-31T10:12:23;32.88;;;5.53;;
54123;SDS011;55741;53.252;5.788;2023-01-31T10:15:17;32.33;;;5.70;;
54123;SDS011;55741;53.252;5.788;2023-01-31T10:18:16;40.03;;;5.43;;
54123;SDS011;55741;53.252;5.788;2023-01-31T10:21:07;43.05;;;5.63;;
54123;SDS011;55741;53.252;5.788;2023-01-31T10:23:39;35.30;;;7.30;;
54123;SDS011;55741;53.252;5.788;2023-01-31T10:26:23;41.65;;;6.57;;
54123;SDS011;55741;53.252;5.788;2023-01-31T10:28:59;34.05;;;4.75;;
54123;SDS011;55741;53.252;5.788;2023-01-31T10:34:22;30.17;;;5.22;;
54123;SDS011;55741;53.252;5.788;2023-01-31T10:39:36;32.78;;;5.28;;
54123;SDS011;55741;53.252;5.788;2023-01-31T10:42:20;38.22;;;5.22;;
54123;SDS011;55741;53.252;5.788;2023-01-31T10:47:35;30.15;;;4.82;;
54123;SDS011;55741;53.252;5.788;2023-01-31T10:50:13;25.48;;;5.40;;
54123;SDS011;55741;53.252;5.788;2023-01-31T10:55:58;30.83;;;5.47;;
54123;SDS011;55741;53.252;5.788;2023-01-31T10:58:30;26.98;;;5.22;;
54123;SDS011;55741;53.252;5.788;2023-01-31T11:01:03;47.13;;;5.57;;
54123;SDS011;55741;53.252;5.788;2023-01-31T11:03:54;25.77;;;5.15;;
54123;SDS011;55741;53.252;5.788;2023-01-31T11:06:20;28.23;;;5.35;;
54123;SDS011;55741;53.252;5.788;2023-01-31T11:08:48;35.83;;;6.78;;
54123;SDS011;55741;53.252;5.788;2023-01-31T11:11:19;27.80;;;5.78;;
54123;SDS011;55741;53.252;5.788;2023-01-31T11:14:00;30.52;;;4.95;;
54123;SDS011;55741;53.252;5.788;2023-01-31T11:16:30;40.22;;;7.45;;
54123;SDS011;55741;53.252;5.788;2023-01-31T11:19:12;31.90;;;5.80;;
54123;SDS011;55741;53.252;5.788;2023-01-31T11:21:49;28.17;;;5.80;;
54123;SDS011;55741;53.252;5.788;2023-01-31T11:24:19;37.45;;;5.63;;
54123;SDS011;55741;53.252;5.788;2023-01-31T11:26:51;28.95;;;5.60;;
54123;SDS011;55741;53.252;5.788;2023-01-31T11:29:22;39.90;;;5.65;;
54123;SDS011;55741;53.252;5.788;2023-01-31T11:32:01;28.00;;;5.03;;
54123;SDS011;55741;53.252;5.788;2023-01-31T11:34:31;32.90;;;5.18;;
54123;SDS011;55741;53.252;5.788;2023-01-31T11:37:05;42.85;;;6.25;;
54123;SDS011;55741;53.252;5.788;2023-01-31T11:39:39;31.95;;;5.25;;
54123;SDS011;55741;53.252;5.788;2023-01-31T11:42:06;22.48;;;4.20;;
54123;SDS011;55741;53.252;5.788;2023-01-31T11:47:41;22.23;;;5.35;;
54123;SDS011;55741;53.252;5.788;2023-01-31T11:52:57;34.08;;;5.13;;
54123;SDS011;55741;53.252;5.788;2023-01-31T11:55:37;28.80;;;4.20;;
54123;SDS011;55741;53.252;5.788;2023-01-31T11:58:14;28.10;;;5.45;;
54123;SDS011;55741;53.252;5.788;2023-01-31T12:01:06;30.00;;;5.55;;
54123;SDS011;55741;53.252;5.788;2023-01-31T12:06:00;24.88;;;5.53;;
54123;SDS011;55741;53.252;5.788;2023-01-31T12:11:03;24.20;;;4.93;;
54123;SDS011;55741;53.252;5.788;2023-01-31T12:13:31;33.67;;;5.60;;
54123;SDS011;55741;53.252;5.788;2023-01-31T12:16:13;32.30;;;6.18;;
54123;SDS011;55741;53.252;5.788;2023-01-31T12:46:53;35.38;;;6.05;;
54123;SDS011;55741;53.252;5.788;2023-01-31T12:52:24;31.30;;;6.55;;
54123;SDS011;55741;53.252;5.788;2023-01-31T12:58:26;21.55;;;4.70;;
54123;SDS011;55741;53.252;5.788;2023-01-31T13:00:45;23.95;;;4.95;;
54123;SDS011;55741;53.252;5.788;2023-01-31T13:06:31;29.08;;;5.88;;
54123;SDS011;55741;53.252;5.788;2023-01-31T13:09:11;31.67;;;4.57;;
54123;SDS011;55741;53.252;5.788;2023-01-31T13:11:41;30.45;;;5.07;;
54123;SDS011;55741;53.252;5.788;2023-01-31T13:14:31;27.00;;;6.00;;
54123;SDS011;55741;53.252;5.788;2023-01-31T13:17:03;24.70;;;4.30;;
54123;SDS011;55741;53.252;5.788;2023-01-31T13:22:16;22.85;;;4.18;;
54123;SDS011;55741;53.252;5.788;2023-01-31T13:24:47;26.27;;;5.25;;
54123;SDS011;55741;53.252;5.788;2023-01-31T13:30:03;27.90;;;4.53;;
54123;SDS011;55741;53.252;5.788;2023-01-31T13:32:40;24.77;;;4.65;;
54123;SDS011;55741;53.252;5.788;2023-01-31T13:35:15;24.73;;;5.93;;
54123;SDS011;55741;53.252;5.788;2023-01-31T13:37:47;28.17;;;5.68;;
54123;SDS011;55741;53.252;5.788;2023-01-31T13:40:17;35.58;;;6.53;;
54123;SDS011;55741;53.252;5.788;2023-01-31T13:42:46;27.05;;;5.50;;
54123;SDS011;55741;53.252;5.788;2023-01-31T13:45:22;30.65;;;5.00;;
54123;SDS011;55741;53.252;5.788;2023-01-31T13:47:57;31.02;;;5.40;;
54123;SDS011;55741;53.252;5.788;2023-01-31T13:53:15;26.77;;;5.10;;
54123;SDS011;55741;53.252;5.788;2023-01-31T13:55:54;29.15;;;5.72;;
54123;SDS011;55741;53.252;5.788;2023-01-31T13:58:22;25.25;;;6.07;;
54123;SDS011;55741;53.252;5.788;2023-01-31T14:00:56;24.48;;;5.40;;
54123;SDS011;55741;53.252;5.788;2023-01-31T14:07:12;32.13;;;6.07;;
54123;SDS011;55741;53.252;5.788;2023-01-31T14:14:43;27.23;;;5.78;;
54123;SDS011;55741;53.252;5.788;2023-01-31T14:22:27;32.55;;;6.25;;
54123;SDS011;55741;53.252;5.788;2023-01-31T14:27:38;35.70;;;5.90;;
54123;SDS011;55741;53.252;5.788;2023-01-31T14:41:29;49.47;;;7.78;;
54123;SDS011;55741;53.252;5.788;2023-01-31T14:44:23;34.17;;;6.78;;
54123;SDS011;55741;53.252;5.788;2023-01-31T14:53:28;37.20;;;6.07;;
54123;SDS011;55741;53.252;5.788;2023-01-31T14:58:27;35.35;;;6.75;;
54123;SDS011;55741;53.252;5.788;2023-01-31T15:00:56;42.92;;;6.95;;
54123;SDS011;55741;53.252;5.788;2023-01-31T15:03:25;37.83;;;7.95;;
54123;SDS011;55741;53.252;5.788;2023-01-31T15:06:12;37.40;;;7.70;;
54123;SDS011;55741;53.252;5.788;2023-01-31T15:08:43;34.85;;;6.53;;
54123;SDS011;55741;53.252;5.788;2023-01-31T15:14:18;37.35;;;6.93;;
54123;SDS011;55741;53.252;5.788;2023-01-31T15:19:57;34.10;;;6.93;;
54123;SDS011;55741;53.252;5.788;2023-01-31T15:22:38;42.33;;;7.43;;
54123;SDS011;55741;53.252;5.788;2023-01-31T15:25:24;43.22;;;8.05;;
54123;SDS011;55741;53.252;5.788;2023-01-31T15:27:58;40.60;;;7.63;;
54123;SDS011;55741;53.252;5.788;2023-01-31T15:30:25;46.10;;;7.25;;
54123;SDS011;55741;53.252;5.788;2023-01-31T15:32:55;39.25;;;8.00;;
54123;SDS011;55741;53.252;5.788;2023-01-31T15:35:49;37.88;;;7.82;;
54123;SDS011;55741;53.252;5.788;2023-01-31T15:38:28;41.03;;;6.55;;
54123;SDS011;55741;53.252;5.788;2023-01-31T15:41:05;35.50;;;8.05;;
54123;SDS011;55741;53.252;5.788;2023-01-31T15:43:47;37.50;;;8.10;;
54123;SDS011;55741;53.252;5.788;2023-01-31T15:46:31;38.45;;;8.15;;
54123;SDS011;55741;53.252;5.788;2023-01-31T15:49:00;37.63;;;7.85;;
54123;SDS011;55741;53.252;5.788;2023-01-31T15:51:27;36.30;;;7.38;;
54123;SDS011;55741;53.252;5.788;2023-01-31T15:54:03;36.55;;;7.00;;
54123;SDS011;55741;53.252;5.788;2023-01-31T15:56:38;40.53;;;6.88;;
54123;SDS011;55741;53.252;5.788;2023-01-31T15:59:12;37.65;;;9.60;;
54123;SDS011;55741;53.252;5.788;2023-01-31T16:01:39;44.38;;;8.27;;
54123;SDS011;55741;53.252;5.788;2023-01-31T16:04:11;45.15;;;8.43;;
54123;SDS011;55741;53.252;5.788;2023-01-31T16:06:38;45.70;;;7.65;;
54123;SDS011;55741;53.252;5.788;2023-01-31T16:09:05;44.70;;;8.48;;
54123;SDS011;55741;53.252;5.788;2023-01-31T16:11:52;41.55;;;8.27;;
54123;SDS011;55741;53.252;5.788;2023-01-31T16:14:19;49.85;;;9.25;;
54123;SDS011;55741;53.252;5.788;2023-01-31T16:16:46;41.67;;;7.25;;
54123;SDS011;55741;53.252;5.788;2023-01-31T16:19:20;48.70;;;8.23;;
54123;SDS011;55741;53.252;5.788;2023-01-31T16:21:52;45.08;;;7.78;;
54123;SDS011;55741;53.252;5.788;2023-01-31T16:24:21;52.30;;;8.85;;
54123;SDS011;55741;53.252;5.788;2023-01-31T16:27:01;32.75;;;8.40;;
54123;SDS011;55741;53.252;5.788;2023-01-31T16:32:13;41.53;;;7.90;;
54123;SDS011;55741;53.252;5.788;2023-01-31T16:34:43;43.63;;;7.93;;
54123;SDS011;55741;53.252;5.788;2023-01-31T16:37:15;36.60;;;7.82;;
54123;SDS011;55741;53.252;5.788;2023-01-31T16:40:44;41.75;;;7.97;;
54123;SDS011;55741;53.252;5.788;2023-01-31T16:50:54;35.22;;;7.97;;
54123;SDS011;55741;53.252;5.788;2023-01-31T16:53:26;34.60;;;6.82;;
54123;SDS011;55741;53.252;5.788;2023-01-31T16:58:46;45.85;;;7.47;;
54123;SDS011;55741;53.252;5.788;2023-01-31T17:01:15;43.05;;;6.70;;
54123;SDS011;55741;53.252;5.788;2023-01-31T17:03:46;37.42;;;7.18;;
54123;SDS011;55741;53.252;5.788;2023-01-31T17:06:29;35.10;;;5.95;;
54123;SDS011;55741;53.252;5.788;2023-01-31T17:08:56;54.47;;;8.35;;
54123;SDS011;55741;53.252;5.788;2023-01-31T17:11:22;34.25;;;6.95;;
54123;SDS011;55741;53.252;5.788;2023-01-31T17:13:48;30.10;;;6.65;;
54123;SDS011;55741;53.252;5.788;2023-01-31T17:16:15;37.40;;;6.57;;
54123;SDS011;55741;53.252;5.788;2023-01-31T17:18:50;28.10;;;7.63;;
54123;SDS011;55741;53.252;5.788;2023-01-31T17:21:17;35.30;;;6.72;;
54123;SDS011;55741;53.252;5.788;2023-01-31T17:23:43;41.22;;;7.00;;
54123;SDS011;55741;53.252;5.788;2023-01-31T17:26:14;38.67;;;5.80;;
54123;SDS011;55741;53.252;5.788;2023-01-31T17:28:41;33.47;;;7.03;;
54123;SDS011;55741;53.252;5.788;2023-01-31T17:31:17;38.60;;;7.97;;
54123;SDS011;55741;53.252;5.788;2023-01-31T17:33:45;39.72;;;7.43;;
54123;SDS011;55741;53.252;5.788;2023-01-31T17:36:15;39.15;;;6.70;;
54123;SDS011;55741;53.252;5.788;2023-01-31T17:38:42;36.60;;;6.78;;
54123;SDS011;55741;53.252;5.788;2023-01-31T17:41:10;35.75;;;6.63;;